CheckWX is a tool to help pilots better visualize weather data.  It is not intended as a substitute for an official pre-flight weather briefing.

16:48:10 UTC

LFPV METAR
Villacoublay-Vélizy (BA 107) Air Base Airport
Villacoublay/Vélizy, France
Current

18 mins ago

LFPV 071630Z AUTO 22004KT 180V250 9999 OVC036 10/06 Q1018 BECMG BKN003
Observed
Dec-7 @ 16:30 UTC
Wind
  • 220° at 4 KTS
Visibility
10,000+ meters
Flight Rules
VFR
Cloud Levels
  • Overcast at 3,600' AGL
Temperature
10°C / 50°F
Dewpoint
C / 43°F
Humidity
76%
Altimeter
30.06" Hg
Pressure
1017.92 hPa
Previous

48 mins ago

LFPV 071600Z AUTO 23004KT 9999 OVC037 10/06 Q1018 BECMG BKN003
Observed
Dec-7 @ 16:00 UTC
Wind
  • 230° at 4 KTS
Visibility
10,000+ meters
Flight Rules
VFR
Cloud Levels
  • Overcast at 3,700' AGL
Temperature
10°C / 50°F
Dewpoint
C / 43°F
Humidity
76%
Altimeter
30.06" Hg
Pressure
1017.92 hPa
Previous

1 hour ago

LFPV 071530Z AUTO 22005KT 180V240 9999 OVC037 10/07 Q1018 BECMG BKN003
Observed
Dec-7 @ 15:30 UTC
Wind
  • 220° at 5 KTS
Visibility
10,000+ meters
Flight Rules
VFR
Cloud Levels
  • Overcast at 3,700' AGL
Temperature
10°C / 50°F
Dewpoint
C / 45°F
Humidity
82%
Altimeter
30.06" Hg
Pressure
1017.92 hPa